sensor_id;sensor_type;location;lat;lon;timestamp;temperature;humidity
35313;DHT22;21425;50.454;30.466;2023-04-06T00:00:50;8.70;99.90
35313;DHT22;21425;50.454;30.466;2023-04-06T00:03:15;7.60;99.90
35313;DHT22;21425;50.454;30.466;2023-04-06T00:05:41;8.00;99.90
35313;DHT22;21425;50.454;30.466;2023-04-06T00:08:07;7.60;99.90
35313;DHT22;21425;50.454;30.466;2023-04-06T00:10:33;8.50;99.90
35313;DHT22;21425;50.454;30.466;2023-04-06T00:12:59;7.60;99.90
35313;DHT22;21425;50.454;30.466;2023-04-06T00:15:24;9.30;99.90
35313;DHT22;21425;50.454;30.466;2023-04-06T00:17:50;7.60;99.90
35313;DHT22;21425;50.454;30.466;2023-04-06T00:20:15;7.80;99.90
35313;DHT22;21425;50.454;30.466;2023-04-06T00:22:41;7.70;99.90
35313;DHT22;21425;50.454;30.466;2023-04-06T00:25:07;7.70;99.90
35313;DHT22;21425;50.454;30.466;2023-04-06T00:27:32;7.60;99.90
35313;DHT22;21425;50.454;30.466;2023-04-06T00:29:58;7.70;99.90
35313;DHT22;21425;50.454;30.466;2023-04-06T00:32:23;7.10;99.90
35313;DHT22;21425;50.454;30.466;2023-04-06T00:34:49;7.80;99.90
35313;DHT22;21425;50.454;30.466;2023-04-06T00:37:14;7.70;99.90
35313;DHT22;21425;50.454;30.466;2023-04-06T00:39:40;7.70;99.90
35313;DHT22;21425;50.454;30.466;2023-04-06T00:42:10;8.00;99.90
35313;DHT22;21425;50.454;30.466;2023-04-06T00:44:37;7.70;99.90
35313;DHT22;21425;50.454;30.466;2023-04-06T00:47:03;7.00;99.90
35313;DHT22;21425;50.454;30.466;2023-04-06T00:49:28;7.60;99.90
35313;DHT22;21425;50.454;30.466;2023-04-06T00:51:54;8.70;99.90
35313;DHT22;21425;50.454;30.466;2023-04-06T00:54:20;7.70;99.90
35313;DHT22;21425;50.454;30.466;2023-04-06T00:56:45;7.70;99.90
35313;DHT22;21425;50.454;30.466;2023-04-06T00:59:11;7.70;99.90
35313;DHT22;21425;50.454;30.466;2023-04-06T01:01:36;11.30;99.90
35313;DHT22;21425;50.454;30.466;2023-04-06T01:04:02;7.70;99.90
35313;DHT22;21425;50.454;30.466;2023-04-06T01:06:28;7.80;99.90
35313;DHT22;21425;50.454;30.466;2023-04-06T01:08:53;7.60;99.90
35313;DHT22;21425;50.454;30.466;2023-04-06T01:11:19;10.10;99.90
35313;DHT22;21425;50.454;30.466;2023-04-06T01:13:45;8.00;99.90
35313;DHT22;21425;50.454;30.466;2023-04-06T01:16:11;8.90;99.90
35313;DHT22;21425;50.454;30.466;2023-04-06T01:18:37;7.90;99.90
35313;DHT22;21425;50.454;30.466;2023-04-06T01:21:02;7.70;99.90
35313;DHT22;21425;50.454;30.466;2023-04-06T01:23:28;10.10;99.90
35313;DHT22;21425;50.454;30.466;2023-04-06T01:25:53;7.80;99.90
35313;DHT22;21425;50.454;30.466;2023-04-06T01:28:18;8.10;99.90
35313;DHT22;21425;50.454;30.466;2023-04-06T01:30:44;7.80;99.90
35313;DHT22;21425;50.454;30.466;2023-04-06T01:33:10;7.80;99.90
35313;DHT22;21425;50.454;30.466;2023-04-06T01:35:35;8.80;99.90
35313;DHT22;21425;50.454;30.466;2023-04-06T01:38:01;8.90;99.90
35313;DHT22;21425;50.454;30.466;2023-04-06T01:40:27;8.20;99.90
35313;DHT22;21425;50.454;30.466;2023-04-06T01:42:52;7.70;99.90
35313;DHT22;21425;50.454;30.466;2023-04-06T01:45:18;8.50;99.90
35313;DHT22;21425;50.454;30.466;2023-04-06T01:47:43;7.90;99.90
35313;DHT22;21425;50.454;30.466;2023-04-06T01:50:09;8.00;99.90
35313;DHT22;21425;50.454;30.466;2023-04-06T01:52:34;8.00;99.90
35313;DHT22;21425;50.454;30.466;2023-04-06T01:55:00;7.90;99.90
35313;DHT22;21425;50.454;30.466;2023-04-06T01:57:25;8.10;99.90
35313;DHT22;21425;50.454;30.466;2023-04-06T01:59:51;5.50;99.90
35313;DHT22;21425;50.454;30.466;2023-04-06T02:02:16;8.50;99.90
35313;DHT22;21425;50.454;30.466;2023-04-06T02:04:42;8.00;99.90
35313;DHT22;21425;50.454;30.466;2023-04-06T02:07:08;8.10;99.90
35313;DHT22;21425;50.454;30.466;2023-04-06T02:09:33;8.20;99.90
35313;DHT22;21425;50.454;30.466;2023-04-06T02:11:59;8.00;99.90
35313;DHT22;21425;50.454;30.466;2023-04-06T02:14:25;8.90;99.90
35313;DHT22;21425;50.454;30.466;2023-04-06T02:16:51;6.80;99.90
35313;DHT22;21425;50.454;30.466;2023-04-06T02:19:16;8.10;99.90
35313;DHT22;21425;50.454;30.466;2023-04-06T02:21:42;8.60;99.90
35313;DHT22;21425;50.454;30.466;2023-04-06T02:24:07;10.40;99.90
35313;DHT22;21425;50.454;30.466;2023-04-06T02:26:33;8.00;99.90
35313;DHT22;21425;50.454;30.466;2023-04-06T02:28:58;9.10;99.90
35313;DHT22;21425;50.454;30.466;2023-04-06T02:31:24;8.30;99.90
35313;DHT22;21425;50.454;30.466;2023-04-06T02:33:50;5.40;99.90
35313;DHT22;21425;50.454;30.466;2023-04-06T02:36:15;8.20;99.90
35313;DHT22;21425;50.454;30.466;2023-04-06T02:38:41;8.00;99.90
35313;DHT22;21425;50.454;30.466;2023-04-06T02:41:09;11.10;99.90
35313;DHT22;21425;50.454;30.466;2023-04-06T02:43:34;7.90;99.90
35313;DHT22;21425;50.454;30.466;2023-04-06T02:46:00;10.00;99.90
35313;DHT22;21425;50.454;30.466;2023-04-06T02:48:25;9.50;99.90
35313;DHT22;21425;50.454;30.466;2023-04-06T02:50:51;9.90;99.90
35313;DHT22;21425;50.454;30.466;2023-04-06T02:53:16;7.10;99.90
35313;DHT22;21425;50.454;30.466;2023-04-06T02:55:42;8.80;99.90
35313;DHT22;21425;50.454;30.466;2023-04-06T02:58:07;8.30;99.90
35313;DHT22;21425;50.454;30.466;2023-04-06T03:00:33;8.40;99.90
35313;DHT22;21425;50.454;30.466;2023-04-06T03:02:58;8.50;99.90
35313;DHT22;21425;50.454;30.466;2023-04-06T03:05:23;8.20;99.90
35313;DHT22;21425;50.454;30.466;2023-04-06T03:07:49;8.40;99.90
35313;DHT22;21425;50.454;30.466;2023-04-06T03:10:15;8.30;99.90
35313;DHT22;21425;50.454;30.466;2023-04-06T03:12:40;8.10;99.90
35313;DHT22;21425;50.454;30.466;2023-04-06T03:15:07;8.30;99.90
35313;DHT22;21425;50.454;30.466;2023-04-06T03:17:32;8.30;99.90
35313;DHT22;21425;50.454;30.466;2023-04-06T03:19:58;6.60;99.90
35313;DHT22;21425;50.454;30.466;2023-04-06T03:22:23;8.30;99.90
35313;DHT22;21425;50.454;30.466;2023-04-06T03:24:49;8.30;99.90
35313;DHT22;21425;50.454;30.466;2023-04-06T03:27:14;8.20;99.90
35313;DHT22;21425;50.454;30.466;2023-04-06T03:29:40;9.20;99.90
35313;DHT22;21425;50.454;30.466;2023-04-06T03:32:05;8.50;99.90
35313;DHT22;21425;50.454;30.466;2023-04-06T03:34:31;8.80;99.90
35313;DHT22;21425;50.454;30.466;2023-04-06T03:36:56;9.00;99.90
35313;DHT22;21425;50.454;30.466;2023-04-06T03:39:22;7.10;99.90
35313;DHT22;21425;50.454;30.466;2023-04-06T03:41:47;8.50;99.90
35313;DHT22;21425;50.454;30.466;2023-04-06T03:44:13;9.30;99.90
35313;DHT22;21425;50.454;30.466;2023-04-06T03:46:38;8.30;99.90
35313;DHT22;21425;50.454;30.466;2023-04-06T03:49:04;8.40;99.90
35313;DHT22;21425;50.454;30.466;2023-04-06T03:51:29;8.80;99.90
35313;DHT22;21425;50.454;30.466;2023-04-06T03:53:55;8.40;99.90
35313;DHT22;21425;50.454;30.466;2023-04-06T03:56:20;8.30;99.90
35313;DHT22;21425;50.454;30.466;2023-04-06T03:58:46;8.40;99.90
35313;DHT22;21425;50.454;30.466;2023-04-06T04:01:14;10.50;99.90
35313;DHT22;21425;50.454;30.466;2023-04-06T04:03:40;8.50;99.90
35313;DHT22;21425;50.454;30.466;2023-04-06T04:06:05;8.50;99.90
35313;DHT22;21425;50.454;30.466;2023-04-06T04:08:31;8.30;99.90
35313;DHT22;21425;50.454;30.466;2023-04-06T04:10:56;9.90;99.90
35313;DHT22;21425;50.454;30.466;2023-04-06T04:13:22;8.50;99.90
35313;DHT22;21425;50.454;30.466;2023-04-06T04:15:47;11.90;99.90
35313;DHT22;21425;50.454;30.466;2023-04-06T04:18:13;8.50;99.90
35313;DHT22;21425;50.454;30.466;2023-04-06T04:20:39;10.70;99.90
35313;DHT22;21425;50.454;30.466;2023-04-06T04:23:04;9.30;99.90
35313;DHT22;21425;50.454;30.466;2023-04-06T04:25:30;9.00;99.90
35313;DHT22;21425;50.454;30.466;2023-04-06T04:27:55;7.30;99.90
35313;DHT22;21425;50.454;30.466;2023-04-06T04:30:21;8.30;99.90
35313;DHT22;21425;50.454;30.466;2023-04-06T04:32:46;10.00;99.90
35313;DHT22;21425;50.454;30.466;2023-04-06T04:35:12;8.50;99.90
35313;DHT22;21425;50.454;30.466;2023-04-06T04:37:38;8.60;99.90
35313;DHT22;21425;50.454;30.466;2023-04-06T04:40:04;7.80;99.90
35313;DHT22;21425;50.454;30.466;2023-04-06T04:42:30;8.60;99.90
35313;DHT22;21425;50.454;30.466;2023-04-06T04:44:56;8.60;99.90
35313;DHT22;21425;50.454;30.466;2023-04-06T04:47:21;9.30;99.90
35313;DHT22;21425;50.454;30.466;2023-04-06T04:49:47;8.60;99.90
35313;DHT22;21425;50.454;30.466;2023-04-06T04:52:12;11.30;99.90
35313;DHT22;21425;50.454;30.466;2023-04-06T04:54:38;9.40;99.90
35313;DHT22;21425;50.454;30.466;2023-04-06T04:57:05;8.90;99.90
35313;DHT22;21425;50.454;30.466;2023-04-06T04:59:30;10.30;99.90
35313;DHT22;21425;50.454;30.466;2023-04-06T05:01:56;9.00;99.90
35313;DHT22;21425;50.454;30.466;2023-04-06T05:04:22;8.70;99.90
35313;DHT22;21425;50.454;30.466;2023-04-06T05:06:48;9.00;99.90
35313;DHT22;21425;50.454;30.466;2023-04-06T05:09:13;12.00;99.90
35313;DHT22;21425;50.454;30.466;2023-04-06T05:11:39;8.90;99.90
35313;DHT22;21425;50.454;30.466;2023-04-06T05:14:04;8.90;99.90
35313;DHT22;21425;50.454;30.466;2023-04-06T05:16:32;9.20;99.90
35313;DHT22;21425;50.454;30.466;2023-04-06T05:18:57;8.90;99.90
35313;DHT22;21425;50.454;30.466;2023-04-06T05:21:23;9.00;99.90
35313;DHT22;21425;50.454;30.466;2023-04-06T05:23:48;10.20;99.90
35313;DHT22;21425;50.454;30.466;2023-04-06T05:26:14;9.30;99.90
35313;DHT22;21425;50.454;30.466;2023-04-06T05:28:39;9.30;99.90
35313;DHT22;21425;50.454;30.466;2023-04-06T05:31:07;9.10;99.90
35313;DHT22;21425;50.454;30.466;2023-04-06T05:33:33;9.00;99.90
35313;DHT22;21425;50.454;30.466;2023-04-06T05:35:58;9.20;99.90
35313;DHT22;21425;50.454;30.466;2023-04-06T05:38:26;9.20;99.90
35313;DHT22;21425;50.454;30.466;2023-04-06T05:40:51;10.40;99.90
35313;DHT22;21425;50.454;30.466;2023-04-06T05:43:17;10.50;99.90
35313;DHT22;21425;50.454;30.466;2023-04-06T05:45:44;9.20;99.90
35313;DHT22;21425;50.454;30.466;2023-04-06T05:48:09;9.20;99.90
35313;DHT22;21425;50.454;30.466;2023-04-06T05:50:35;9.40;99.90
35313;DHT22;21425;50.454;30.466;2023-04-06T05:53:00;10.50;99.90
35313;DHT22;21425;50.454;30.466;2023-04-06T05:55:26;8.20;99.90
35313;DHT22;21425;50.454;30.466;2023-04-06T05:57:53;9.40;99.90
35313;DHT22;21425;50.454;30.466;2023-04-06T06:00:18;7.80;99.90
35313;DHT22;21425;50.454;30.466;2023-04-06T06:02:44;9.60;99.90
35313;DHT22;21425;50.454;30.466;2023-04-06T06:05:09;9.60;99.90
35313;DHT22;21425;50.454;30.466;2023-04-06T06:07:36;9.50;99.90
35313;DHT22;21425;50.454;30.466;2023-04-06T06:10:01;10.70;99.90
35313;DHT22;21425;50.454;30.466;2023-04-06T06:12:27;9.60;99.90
35313;DHT22;21425;50.454;30.466;2023-04-06T06:14:53;9.70;99.90
35313;DHT22;21425;50.454;30.466;2023-04-06T06:17:18;9.80;99.90
35313;DHT22;21425;50.454;30.466;2023-04-06T06:19:44;10.10;99.90
35313;DHT22;21425;50.454;30.466;2023-04-06T06:22:10;9.80;99.90
35313;DHT22;21425;50.454;30.466;2023-04-06T06:24:35;11.20;99.90
35313;DHT22;21425;50.454;30.466;2023-04-06T06:27:01;10.20;99.90
35313;DHT22;21425;50.454;30.466;2023-04-06T06:29:26;11.10;99.90
35313;DHT22;21425;50.454;30.466;2023-04-06T06:31:52;10.30;99.90
35313;DHT22;21425;50.454;30.466;2023-04-06T06:34:17;10.60;99.90
35313;DHT22;21425;50.454;30.466;2023-04-06T06:36:43;10.40;99.90
35313;DHT22;21425;50.454;30.466;2023-04-06T06:39:08;10.50;99.90
35313;DHT22;21425;50.454;30.466;2023-04-06T06:41:34;10.60;99.90
35313;DHT22;21425;50.454;30.466;2023-04-06T06:43:59;10.90;99.90
35313;DHT22;21425;50.454;30.466;2023-04-06T06:46:25;11.20;99.90
35313;DHT22;21425;50.454;30.466;2023-04-06T06:48:50;11.10;99.90
35313;DHT22;21425;50.454;30.466;2023-04-06T06:51:16;11.10;99.90
35313;DHT22;21425;50.454;30.466;2023-04-06T06:53:41;11.20;99.90
35313;DHT22;21425;50.454;30.466;2023-04-06T06:56:07;11.00;99.90
35313;DHT22;21425;50.454;30.466;2023-04-06T06:58:32;11.00;99.90
35313;DHT22;21425;50.454;30.466;2023-04-06T07:00:58;12.70;99.90
35313;DHT22;21425;50.454;30.466;2023-04-06T07:03:24;14.10;99.90
35313;DHT22;21425;50.454;30.466;2023-04-06T07:05:49;11.40;99.90
35313;DHT22;21425;50.454;30.466;2023-04-06T07:08:21;11.90;99.90
35313;DHT22;21425;50.454;30.466;2023-04-06T07:10:47;11.50;99.90
35313;DHT22;21425;50.454;30.466;2023-04-06T07:13:13;11.90;99.90
35313;DHT22;21425;50.454;30.466;2023-04-06T07:15:44;12.10;99.90
35313;DHT22;21425;50.454;30.466;2023-04-06T07:18:09;12.00;99.90
35313;DHT22;21425;50.454;30.466;2023-04-06T07:20:35;14.40;99.90
35313;DHT22;21425;50.454;30.466;2023-04-06T07:23:00;11.90;99.90
35313;DHT22;21425;50.454;30.466;2023-04-06T07:25:27;12.00;99.90
35313;DHT22;21425;50.454;30.466;2023-04-06T07:27:53;11.60;99.90
35313;DHT22;21425;50.454;30.466;2023-04-06T07:30:18;11.60;99.90
35313;DHT22;21425;50.454;30.466;2023-04-06T07:32:44;10.80;99.90
35313;DHT22;21425;50.454;30.466;2023-04-06T07:35:10;11.70;99.90
35313;DHT22;21425;50.454;30.466;2023-04-06T07:37:35;11.90;99.90
35313;DHT22;21425;50.454;30.466;2023-04-06T07:40:01;13.20;99.90
35313;DHT22;21425;50.454;30.466;2023-04-06T07:42:26;11.90;99.90
35313;DHT22;21425;50.454;30.466;2023-04-06T07:44:52;10.40;99.90
35313;DHT22;21425;50.454;30.466;2023-04-06T07:47:17;13.30;99.90
35313;DHT22;21425;50.454;30.466;2023-04-06T07:49:43;12.40;99.90
35313;DHT22;21425;50.454;30.466;2023-04-06T07:52:09;13.20;99.90
35313;DHT22;21425;50.454;30.466;2023-04-06T07:54:35;12.20;99.90
35313;DHT22;21425;50.454;30.466;2023-04-06T07:57:00;12.30;99.90
35313;DHT22;21425;50.454;30.466;2023-04-06T07:59:26;11.80;99.90
35313;DHT22;21425;50.454;30.466;2023-04-06T08:01:51;12.20;99.90
35313;DHT22;21425;50.454;30.466;2023-04-06T08:04:17;12.20;99.90
35313;DHT22;21425;50.454;30.466;2023-04-06T08:06:42;12.30;99.90
35313;DHT22;21425;50.454;30.466;2023-04-06T08:09:07;13.10;99.90
35313;DHT22;21425;50.454;30.466;2023-04-06T08:11:33;8.80;99.90
35313;DHT22;21425;50.454;30.466;2023-04-06T08:13:58;12.40;99.90
35313;DHT22;21425;50.454;30.466;2023-04-06T08:16:24;11.50;99.90
35313;DHT22;21425;50.454;30.466;2023-04-06T08:18:50;12.60;99.90
35313;DHT22;21425;50.454;30.466;2023-04-06T08:21:15;12.90;99.90
35313;DHT22;21425;50.454;30.466;2023-04-06T08:23:41;12.90;99.90
35313;DHT22;21425;50.454;30.466;2023-04-06T08:26:06;13.30;99.90
35313;DHT22;21425;50.454;30.466;2023-04-06T08:28:32;13.20;99.90
35313;DHT22;21425;50.454;30.466;2023-04-06T08:31:02;13.10;99.90
35313;DHT22;21425;50.454;30.466;2023-04-06T08:33:28;13.20;99.90
35313;DHT22;21425;50.454;30.466;2023-04-06T08:35:53;14.30;99.90
35313;DHT22;21425;50.454;30.466;2023-04-06T08:38:19;12.70;99.90
35313;DHT22;21425;50.454;30.466;2023-04-06T08:40:44;12.80;99.90
35313;DHT22;21425;50.454;30.466;2023-04-06T08:43:13;12.70;99.90
35313;DHT22;21425;50.454;30.466;2023-04-06T08:45:40;12.80;99.90
35313;DHT22;21425;50.454;30.466;2023-04-06T08:48:05;12.80;99.90
35313;DHT22;21425;50.454;30.466;2023-04-06T08:50:32;12.80;99.90
35313;DHT22;21425;50.454;30.466;2023-04-06T08:52:58;12.70;99.90
35313;DHT22;21425;50.454;30.466;2023-04-06T08:55:24;12.70;99.90
35313;DHT22;21425;50.454;30.466;2023-04-06T08:57:50;12.70;99.90
35313;DHT22;21425;50.454;30.466;2023-04-06T09:00:18;12.80;99.90
35313;DHT22;21425;50.454;30.466;2023-04-06T09:02:45;12.90;99.90
35313;DHT22;21425;50.454;30.466;2023-04-06T09:05:10;13.20;99.90
35313;DHT22;21425;50.454;30.466;2023-04-06T09:07:36;13.00;99.90
35313;DHT22;21425;50.454;30.466;2023-04-06T09:10:03;12.80;99.90
35313;DHT22;21425;50.454;30.466;2023-04-06T09:12:29;12.80;99.90
35313;DHT22;21425;50.454;30.466;2023-04-06T09:14:55;12.60;99.90
35313;DHT22;21425;50.454;30.466;2023-04-06T09:19:47;12.40;99.90
35313;DHT22;21425;50.454;30.466;2023-04-06T09:22:12;12.30;99.90
35313;DHT22;21425;50.454;30.466;2023-04-06T09:24:44;12.70;99.90
35313;DHT22;21425;50.454;30.466;2023-04-06T09:27:10;12.30;99.90
35313;DHT22;21425;50.454;30.466;2023-04-06T09:29:36;12.20;99.90
35313;DHT22;21425;50.454;30.466;2023-04-06T09:32:05;12.30;99.90
35313;DHT22;21425;50.454;30.466;2023-04-06T09:34:31;12.40;99.90
35313;DHT22;21425;50.454;30.466;2023-04-06T09:36:57;12.30;99.90
35313;DHT22;21425;50.454;30.466;2023-04-06T09:39:23;12.30;99.90
35313;DHT22;21425;50.454;30.466;2023-04-06T09:41:52;15.30;99.90
35313;DHT22;21425;50.454;30.466;2023-04-06T09:44:19;12.20;99.90
35313;DHT22;21425;50.454;30.466;2023-04-06T09:46:45;12.50;99.90
35313;DHT22;21425;50.454;30.466;2023-04-06T09:49:12;12.10;99.90
35313;DHT22;21425;50.454;30.466;2023-04-06T09:51:39;12.00;99.90
35313;DHT22;21425;50.454;30.466;2023-04-06T09:54:05;11.80;99.90
35313;DHT22;21425;50.454;30.466;2023-04-06T09:56:33;11.60;99.90
35313;DHT22;21425;50.454;30.466;2023-04-06T09:59:02;11.70;99.90
35313;DHT22;21425;50.454;30.466;2023-04-06T10:01:32;11.50;99.90
35313;DHT22;21425;50.454;30.466;2023-04-06T10:04:10;11.50;99.90
35313;DHT22;21425;50.454;30.466;2023-04-06T10:06:38;11.30;99.90
35313;DHT22;21425;50.454;30.466;2023-04-06T10:09:04;11.30;99.90
35313;DHT22;21425;50.454;30.466;2023-04-06T10:11:30;11.20;99.90
35313;DHT22;21425;50.454;30.466;2023-04-06T10:13:56;11.00;99.90
35313;DHT22;21425;50.454;30.466;2023-04-06T10:16:22;11.00;99.90
35313;DHT22;21425;50.454;30.466;2023-04-06T10:18:50;12.80;99.90
35313;DHT22;21425;50.454;30.466;2023-04-06T10:21:20;9.00;99.90
35313;DHT22;21425;50.454;30.466;2023-04-06T10:23:47;11.00;99.90
35313;DHT22;21425;50.454;30.466;2023-04-06T10:26:14;11.20;99.90
35313;DHT22;21425;50.454;30.466;2023-04-06T10:28:42;10.90;99.90
35313;DHT22;21425;50.454;30.466;2023-04-06T10:31:07;10.80;99.90
35313;DHT22;21425;50.454;30.466;2023-04-06T10:33:33;10.90;99.90
35313;DHT22;21425;50.454;30.466;2023-04-06T10:36:12;10.80;99.90
35313;DHT22;21425;50.454;30.466;2023-04-06T10:38:38;10.80;99.90
35313;DHT22;21425;50.454;30.466;2023-04-06T10:41:05;11.00;99.90
35313;DHT22;21425;50.454;30.466;2023-04-06T10:43:33;10.90;99.90
35313;DHT22;21425;50.454;30.466;2023-04-06T10:46:00;12.30;99.90
35313;DHT22;21425;50.454;30.466;2023-04-06T10:48:48;11.00;99.90
35313;DHT22;21425;50.454;30.466;2023-04-06T10:51:17;11.00;99.90
35313;DHT22;21425;50.454;30.466;2023-04-06T10:53:43;11.20;99.90
35313;DHT22;21425;50.454;30.466;2023-04-06T10:56:11;11.30;99.90
35313;DHT22;21425;50.454;30.466;2023-04-06T10:58:37;11.80;99.90
35313;DHT22;21425;50.454;30.466;2023-04-06T11:01:03;11.60;99.90
35313;DHT22;21425;50.454;30.466;2023-04-06T11:03:28;11.60;99.90
35313;DHT22;21425;50.454;30.466;2023-04-06T11:05:54;11.50;99.90
35313;DHT22;21425;50.454;30.466;2023-04-06T11:08:25;11.30;99.90
35313;DHT22;21425;50.454;30.466;2023-04-06T11:10:50;11.40;99.90
35313;DHT22;21425;50.454;30.466;2023-04-06T11:13:16;11.40;99.90
35313;DHT22;21425;50.454;30.466;2023-04-06T11:15:42;14.10;99.90
35313;DHT22;21425;50.454;30.466;2023-04-06T11:18:07;12.90;99.90
35313;DHT22;21425;50.454;30.466;2023-04-06T11:20:33;12.00;99.90
35313;DHT22;21425;50.454;30.466;2023-04-06T11:22:59;12.00;99.90
35313;DHT22;21425;50.454;30.466;2023-04-06T11:25:25;12.00;99.90
35313;DHT22;21425;50.454;30.466;2023-04-06T11:27:52;11.70;99.90
35313;DHT22;21425;50.454;30.466;2023-04-06T11:30:18;11.60;99.90
35313;DHT22;21425;50.454;30.466;2023-04-06T11:32:44;11.70;99.90
35313;DHT22;21425;50.454;30.466;2023-04-06T11:35:10;11.50;99.90
35313;DHT22;21425;50.454;30.466;2023-04-06T11:37:36;11.40;99.90
35313;DHT22;21425;50.454;30.466;2023-04-06T11:40:02;11.50;99.90
35313;DHT22;21425;50.454;30.466;2023-04-06T11:42:28;11.90;99.90
35313;DHT22;21425;50.454;30.466;2023-04-06T11:44:55;12.00;99.90
35313;DHT22;21425;50.454;30.466;2023-04-06T11:47:27;12.10;99.90
35313;DHT22;21425;50.454;30.466;2023-04-06T11:49:52;12.10;99.90
35313;DHT22;21425;50.454;30.466;2023-04-06T11:52:19;12.20;99.90
35313;DHT22;21425;50.454;30.466;2023-04-06T11:54:46;12.20;99.90
35313;DHT22;21425;50.454;30.466;2023-04-06T11:57:11;12.30;99.90
35313;DHT22;21425;50.454;30.466;2023-04-06T11:59:37;12.20;99.90
35313;DHT22;21425;50.454;30.466;2023-04-06T12:02:03;12.20;99.90
35313;DHT22;21425;50.454;30.466;2023-04-06T12:04:29;12.10;99.90
35313;DHT22;21425;50.454;30.466;2023-04-06T12:06:55;12.40;99.90
35313;DHT22;21425;50.454;30.466;2023-04-06T12:09:20;12.10;99.90
35313;DHT22;21425;50.454;30.466;2023-04-06T12:11:46;12.30;99.90
35313;DHT22;21425;50.454;30.466;2023-04-06T12:14:12;12.50;99.90
35313;DHT22;21425;50.454;30.466;2023-04-06T12:16:39;12.50;99.90
35313;DHT22;21425;50.454;30.466;2023-04-06T12:19:04;12.70;99.90
35313;DHT22;21425;50.454;30.466;2023-04-06T12:21:30;13.30;99.90
35313;DHT22;21425;50.454;30.466;2023-04-06T12:23:59;13.10;99.90
35313;DHT22;21425;50.454;30.466;2023-04-06T12:26:25;13.10;99.90
35313;DHT22;21425;50.454;30.466;2023-04-06T12:28:51;13.40;99.90
35313;DHT22;21425;50.454;30.466;2023-04-06T12:31:17;14.00;99.90
35313;DHT22;21425;50.454;30.466;2023-04-06T12:33:45;14.20;99.90
35313;DHT22;21425;50.454;30.466;2023-04-06T12:36:12;14.40;99.90
35313;DHT22;21425;50.454;30.466;2023-04-06T12:38:38;15.00;99.90
35313;DHT22;21425;50.454;30.466;2023-04-06T12:41:05;13.90;99.90
35313;DHT22;21425;50.454;30.466;2023-04-06T12:43:30;13.80;99.90
35313;DHT22;21425;50.454;30.466;2023-04-06T12:45:57;13.60;99.90
35313;DHT22;21425;50.454;30.466;2023-04-06T12:48:22;13.10;99.90
35313;DHT22;21425;50.454;30.466;2023-04-06T12:50:54;13.00;99.90
35313;DHT22;21425;50.454;30.466;2023-04-06T12:53:20;12.90;99.90
35313;DHT22;21425;50.454;30.466;2023-04-06T12:55:45;12.60;99.90
35313;DHT22;21425;50.454;30.466;2023-04-06T12:58:11;12.50;99.90
35313;DHT22;21425;50.454;30.466;2023-04-06T13:00:36;12.70;99.90
35313;DHT22;21425;50.454;30.466;2023-04-06T13:03:02;12.90;99.90
35313;DHT22;21425;50.454;30.466;2023-04-06T13:05:27;14.40;99.90
35313;DHT22;21425;50.454;30.466;2023-04-06T13:07:53;14.40;99.90
35313;DHT22;21425;50.454;30.466;2023-04-06T13:10:18;11.50;99.90
35313;DHT22;21425;50.454;30.466;2023-04-06T13:12:44;13.60;99.90
35313;DHT22;21425;50.454;30.466;2023-04-06T13:15:10;14.60;99.90
35313;DHT22;21425;50.454;30.466;2023-04-06T13:17:35;13.60;99.90
35313;DHT22;21425;50.454;30.466;2023-04-06T13:20:01;13.60;99.90
35313;DHT22;21425;50.454;30.466;2023-04-06T13:22:27;13.90;99.90
35313;DHT22;21425;50.454;30.466;2023-04-06T13:24:52;13.80;99.90
35313;DHT22;21425;50.454;30.466;2023-04-06T13:27:17;14.60;99.90
35313;DHT22;21425;50.454;30.466;2023-04-06T13:29:43;14.20;99.90
35313;DHT22;21425;50.454;30.466;2023-04-06T13:32:09;13.10;99.90
35313;DHT22;21425;50.454;30.466;2023-04-06T13:34:35;12.80;99.90
35313;DHT22;21425;50.454;30.466;2023-04-06T13:37:01;12.50;99.90
35313;DHT22;21425;50.454;30.466;2023-04-06T13:39:26;12.30;99.90
35313;DHT22;21425;50.454;30.466;2023-04-06T13:41:53;12.00;99.90
35313;DHT22;21425;50.454;30.466;2023-04-06T13:44:18;11.80;99.90
35313;DHT22;21425;50.454;30.466;2023-04-06T13:46:45;11.90;99.90
35313;DHT22;21425;50.454;30.466;2023-04-06T13:49:10;11.60;99.90
35313;DHT22;21425;50.454;30.466;2023-04-06T13:51:36;12.20;99.90
35313;DHT22;21425;50.454;30.466;2023-04-06T13:54:02;11.50;99.90
35313;DHT22;21425;50.454;30.466;2023-04-06T13:56:28;11.40;99.90
35313;DHT22;21425;50.454;30.466;2023-04-06T13:58:56;9.50;99.90
35313;DHT22;21425;50.454;30.466;2023-04-06T14:01:22;11.50;99.90
35313;DHT22;21425;50.454;30.466;2023-04-06T14:03:50;11.50;99.90
35313;DHT22;21425;50.454;30.466;2023-04-06T14:06:16;11.60;99.90
35313;DHT22;21425;50.454;30.466;2023-04-06T14:08:41;11.40;99.90
35313;DHT22;21425;50.454;30.466;2023-04-06T14:11:10;11.50;99.90
35313;DHT22;21425;50.454;30.466;2023-04-06T14:13:37;11.50;99.90
35313;DHT22;21425;50.454;30.466;2023-04-06T14:16:02;11.60;99.90
35313;DHT22;21425;50.454;30.466;2023-04-06T14:18:28;11.80;99.90
35313;DHT22;21425;50.454;30.466;2023-04-06T14:20:59;12.00;99.90
35313;DHT22;21425;50.454;30.466;2023-04-06T14:23:26;12.00;99.90
35313;DHT22;21425;50.454;30.466;2023-04-06T14:26:00;12.00;99.90
35313;DHT22;21425;50.454;30.466;2023-04-06T14:28:27;12.50;99.90
35313;DHT22;21425;50.454;30.466;2023-04-06T14:30:53;12.30;99.90
35313;DHT22;21425;50.454;30.466;2023-04-06T14:33:18;12.30;99.90
35313;DHT22;21425;50.454;30.466;2023-04-06T14:35:44;12.30;99.90
35313;DHT22;21425;50.454;30.466;2023-04-06T14:38:10;14.00;99.90
35313;DHT22;21425;50.454;30.466;2023-04-06T14:40:35;12.00;99.90
35313;DHT22;21425;50.454;30.466;2023-04-06T14:43:02;11.90;99.90
35313;DHT22;21425;50.454;30.466;2023-04-06T14:45:28;11.90;99.90
35313;DHT22;21425;50.454;30.466;2023-04-06T14:47:54;12.00;99.90
35313;DHT22;21425;50.454;30.466;2023-04-06T14:50:20;12.00;99.90
35313;DHT22;21425;50.454;30.466;2023-04-06T14:52:45;11.90;99.90
35313;DHT22;21425;50.454;30.466;2023-04-06T14:55:12;13.10;99.90
35313;DHT22;21425;50.454;30.466;2023-04-06T14:57:37;12.00;99.90
35313;DHT22;21425;50.454;30.466;2023-04-06T15:00:03;11.80;99.90
35313;DHT22;21425;50.454;30.466;2023-04-06T15:02:29;11.90;99.90
35313;DHT22;21425;50.454;30.466;2023-04-06T15:04:56;12.00;99.90
35313;DHT22;21425;50.454;30.466;2023-04-06T15:07:22;12.00;99.90
35313;DHT22;21425;50.454;30.466;2023-04-06T15:09:48;11.90;99.90
35313;DHT22;21425;50.454;30.466;2023-04-06T15:12:13;12.00;99.90
35313;DHT22;21425;50.454;30.466;2023-04-06T15:14:39;12.60;99.90
35313;DHT22;21425;50.454;30.466;2023-04-06T15:17:04;12.00;99.90